• Join FlightAware (Why Join?)
  • Login
  • US Flag 
04:11AM EDT


 

Airport Tracker/Info


-or-


 

Live Flight TrackerFlight Track Log ✈ SWA508 ✈ 26-Apr-2013 ✈ KMCO - KPIT

Flight Track Log - Related Links

Times and Time Zones

All times are in EDT time to prevent confusion due to time zone crossing. See the SWA508 flight status page for this flight to view local times or setup timezone preferences in your user account.

Time Position Orientation Groundspeed Altitude Reporting Facility
EDT Latitude Longitude Course Direction KTS MPH feet Rate Location/Type
08:09AM 28.4167 -81.3000 156° South 153 176 600  Level Orlando TRACON
08:10AM 28.3833 -81.2833 156° South 178 205 1,800 2,820 Climbing Orlando TRACON
08:11AM 28.3333 -81.2500 150° Southeast 260 299 4,900 3,420 Climbing Orlando TRACON
08:12AM 28.2667 -81.2167 156° South 297 342 8,700 3,900 Climbing Orlando TRACON
08:13AM 28.2500 -81.1500 106° East 281 323 12,800 3,660 Climbing Orlando TRACON
08:14AM 28.3167 -81.1333 12° North 293 337 15,700 1,860 Climbing Orlando TRACON
08:16AM 28.5081 -81.2036 342° North 360 414 18,600 1,800 Climbing Jacksonville Center
08:17AM 28.6150 -81.2372 345° North 383 441 21,500 2,760 Climbing Jacksonville Center
08:18AM 28.7303 -81.2708 346° North 400 460 24,200 2,520 Climbing Jacksonville Center
08:19AM 28.8456 -81.3117 343° North 417 480 26,600 2,160 Climbing Jacksonville Center
08:20AM 28.9628 -81.3500 344° North 427 491 28,600 2,220 Climbing Jacksonville Center
08:21AM 29.0822 -81.3839 346° North 433 498 31,100 2,400 Climbing Jacksonville Center
08:22AM 29.2036 -81.4011 353° North 433 498 33,500 2,280 Climbing Jacksonville Center
08:23AM 29.3206 -81.4111 356° North 427 491 35,700 2,100 Climbing Jacksonville Center
08:24AM 29.4461 -81.4258 354° North 414 476 37,800 1,860 Climbing Jacksonville Center
08:25AM 29.5567 -81.4361 355° North 407 468 39,500 1,500 Climbing Jacksonville Center
08:26AM 29.6633 -81.4467 355° North 402 463 40,800 720 Climbing Jacksonville Center
08:27AM 29.7719 -81.4569 355° North 397 457 41,000 60 Climbing Jacksonville Center
08:28AM 29.8828 -81.4672 355° North 391 450 41,000  Level Jacksonville Center
08:29AM 29.9914 -81.4778 355° North 391 450 41,000  Level Jacksonville Center
08:30AM 30.0917 -81.4881 355° North 391 450 41,000  Level Jacksonville Center
08:31AM 30.2006 -81.4961 356° North 391 450 41,000  Level Jacksonville Center
08:32AM 30.3111 -81.5067 355° North 391 450 41,000  Level Jacksonville Center
08:33AM 30.4239 -81.5025 North 391 450 41,000  Level Jacksonville Center
08:34AM 30.5364 -81.4936 North 391 450 41,000  Level Jacksonville Center
08:35AM 30.6472 -81.4872 North 391 450 41,000  Level Jacksonville Center
08:36AM 30.7597 -81.4758 North 403 464 41,000  Level Jacksonville Center
08:37AM 30.8725 -81.4694 North 403 464 41,000  Level Jacksonville Center
08:38AM 30.9831 -81.4606 North 403 464 41,000  Level Jacksonville Center
08:39AM 31.0956 -81.4514 North 403 464 41,000  Level Jacksonville Center
08:40AM 31.2103 -81.4400 North 403 464 41,000  Level Jacksonville Center
08:41AM 31.3228 -81.4211 North 403 464 41,000  Level Jacksonville Center
08:42AM 31.4478 -81.3853 14° North 411 473 41,000  Level Jacksonville Center
08:43AM 31.5539 -81.3592 12° North 417 480 41,000  Level Jacksonville Center
08:44AM 31.6808 -81.3253 13° North 417 480 41,000  Level Jacksonville Center
08:45AM 31.7847 -81.2967 13° North 417 480 41,000  Level Jacksonville Center
08:46AM 31.8994 -81.2678 12° North 417 480 41,000  Level Jacksonville Center
08:47AM 32.0136 -81.2364 13° North 417 480 41,000  Level Jacksonville Center
08:48AM 32.1281 -81.2047 13° North 417 480 41,000  Level Jacksonville Center
08:49AM 32.2408 -81.1903 North 417 480 41,000  Level Jacksonville Center
08:50AM 32.3553 -81.1808 North 406 467 41,000  Level Jacksonville Center
08:51AM 32.4806 -81.1761 North 406 467 41,000  Level Jacksonville Center
08:52AM 32.5869 -81.1667 North 405 466 41,000  Level Jacksonville Center
08:53AM 32.6994 -81.1547 North 405 466 41,000  Level Jacksonville Center
08:54AM 32.8142 -81.1450 North 405 466 41,000  Level Jacksonville Center
08:55AM 32.9308 -81.1353 North 405 466 41,000  Level Jacksonville Center
08:56AM 33.0436 -81.1258 North 405 466 41,000  Level Jacksonville Center
08:57AM 33.1561 -81.1161 North 405 466 41,000  Level Jacksonville Center
08:58AM 33.2667 -81.1089 North 405 466 41,000  Level Jacksonville Center
08:59AM 33.3811 -81.0992 North 405 466 41,000  Level Jacksonville Center
09:00AM 33.4917 -81.0869 North 405 466 41,000  Level Jacksonville Center
09:01AM 33.6042 -81.0772 North 405 466 41,000  Level Jacksonville Center
09:02AM 33.7189 -81.0697 North 405 466 41,000  Level Jacksonville Center
09:03AM 33.8461 -81.0572 North 405 466 41,000  Level Jacksonville Center
09:05AM 34.0769 -81.0342 North 415 478 41,000  Level Atlanta Center
09:06AM 34.1808 -81.0231 North 416 479 41,000  Level Atlanta Center
09:07AM 34.2975 -81.0114 North 416 479 41,000  Level Atlanta Center
09:08AM 34.4100 -81.0047 North 416 479 41,000  Level Atlanta Center
09:09AM 34.5244 -80.9906 North 416 479 41,000  Level Atlanta Center
09:10AM 34.6428 -80.9686 North 416 479 41,000  Level Atlanta Center
09:11AM 34.7536 -80.9697 360° North 409 471 41,000  Level Atlanta Center
09:12AM 34.8678 -80.9553 North 410 472 41,000  Level Atlanta Center
09:13AM 34.9844 -80.9383 North 410 472 41,000  Level Atlanta Center
09:14AM 35.1114 -80.9286 North 417 480 41,000  Level Atlanta Center
09:15AM 35.2258 -80.9167 North 412 474 41,000  Level Atlanta Center
09:16AM 35.3444 -80.9019 North 422 486 41,000  Level Atlanta Center
09:17AM 35.4586 -80.8872 North 422 486 41,000  Level Atlanta Center
09:18AM 35.5772 -80.8750 North 422 486 41,000  Level Atlanta Center
09:19AM 35.6958 -80.8628 North 422 486 41,000  Level Atlanta Center
09:20AM 35.8144 -80.8481 North 422 486 41,000  Level Atlanta Center
09:21AM 35.9331 -80.8356 North 422 486 41,000  Level Atlanta Center
09:22AM 36.0494 -80.8233 North 422 486 41,000  Level Atlanta Center
09:23AM 36.1661 -80.8111 North 422 486 41,000  Level Atlanta Center
09:24AM 36.2806 -80.8011 North 422 486 41,000 -120 Level Atlanta Center
09:25AM 36.3969 -80.7861 North 422 486 40,800 -600 Descending Atlanta Center
09:26AM 36.5133 -80.7711 North 422 486 39,800 -1,020 Descending Atlanta Center
09:27AM 36.6317 -80.7586 North 422 486 38,800 -1,680 Descending Atlanta Center
09:28AM 36.7439 -80.7461 North 416 479 36,500 -1,560 Descending Atlanta Center
09:29AM 36.8544 -80.7417 North 410 472 35,700 -480 Descending Atlanta Center
09:31AM 37.1006 -80.6544 16° North 412 474 35,000 -240 Descending Washington Center
09:32AM 37.2094 -80.5964 23° Northeast 417 480 35,000  Level Washington Center
09:33AM 37.3056 -80.5400 25° Northeast 424 488 35,000 -360 Level Washington Center
09:34AM 37.4167 -80.4767 24° Northeast 424 488 34,400 -1,020 Descending Washington Center
09:35AM 37.5314 -80.4264 19° North 430 495 33,000 -1,440 Descending Washington Center
09:36AM 37.6481 -80.3786 18° North 430 495 31,500 -1,500 Descending Washington Center
09:37AM 37.7583 -80.3331 18° North 430 495 30,000 -1,260 Descending Washington Center
09:38AM 37.8814 -80.2831 18° North 424 488 29,000 -540 Descending Washington Center
09:39AM 37.9939 -80.2319 20° North 424 488 29,000  Level Washington Center
09:40AM 38.1083 -80.1864 17° North 429 494 29,000 -420 Level Washington Center
09:41AM 38.2206 -80.1378 19° North 429 494 28,200 -1,680 Descending Washington Center
09:42AM 38.3286 -80.0914 19° North 429 494 25,700 -2,160 Descending Washington Center
09:43AM 38.4242 -80.0494 19° North 416 479 24,000 -900 Descending Washington Center
09:44AM 38.5300 -80.0028 19° North 404 465 24,000 -720 Level Washington Center
09:46AM 38.7792 -79.8908 19° North 398 458 21,800 -960 Descending Cleveland Center
09:47AM 38.8808 -79.8472 18° North 387 445 21,000 -420 Descending Cleveland Center
09:48AM 38.9828 -79.8300 North 374 430 21,000  Level Cleveland Center
09:49AM 39.0850 -79.8183 North 368 423 21,000  Level Cleveland Center
09:50AM 39.1892 -79.8092 North 368 423 21,000  Level Cleveland Center
09:51AM 39.2911 -79.8000 North 368 423 21,000  Level Cleveland Center
09:52AM 39.3953 -79.7908 North 368 423 21,000  Level Cleveland Center
09:53AM 39.4994 -79.7814 North 368 423 21,000 -480 Level Cleveland Center
09:54AM 39.6036 -79.7719 North 368 423 20,100 -960 Descending Cleveland Center
09:55AM 39.7056 -79.7628 North 368 423 19,100 -1,140 Descending Cleveland Center
09:56AM 39.8097 -79.7508 North 368 423 17,900 -1,620 Descending Cleveland Center
09:57AM 39.9097 -79.7442 North 363 418 15,900 -3,960 Descending Cleveland Center
09:58AM 40.0056 -79.7347 North 358 412 10,000 -1,980 Descending Cleveland Center
09:59AM 40.0975 -79.7500 353° North 340 391 12,000 480 Climbing Cleveland Center
10:00AM 40.1586 -79.8333 314° West 303 349 11,000 -1,020 Descending Cleveland Center
10:01AM 40.2153 -79.9089 314° West 298 343 10,000 -1,140 Descending Cleveland Center
10:02AM 40.2636 -79.9792 312° West 276 318 8,800 -1,200 Descending Cleveland Center
10:03AM 40.3119 -80.0494 312° West 266 306 7,600 -900 Descending Cleveland Center
10:04AM 40.3497 -80.1117 309° West 247 284 7,000 -480 Descending Cleveland Center
10:05AM 40.3750 -80.1797 296° West 228 262 6,700 -540 Descending Cleveland Center
10:06AM 40.3772 -80.2561 272° West 213 245 6,000 -720 Descending Cleveland Center
10:08AM 40.4833 -80.2167 303° West  Level FlightAware Approximate
10:15AM 40.4915 -80.2329 303° West  Level Estimated
10:16AM 40.4915 -80.2329 303° West  Level Estimated
10:17AM 40.4915 -80.2329 303° West  Level Estimated